sensor_id;sensor_type;location;lat;lon;timestamp;temperature;humidity
7902;DHT22;3996;49.674;10.716;2023-12-22T00:01:13;6.10;31.30
7902;DHT22;3996;49.674;10.716;2023-12-22T00:03:42;6.10;32.10
7902;DHT22;3996;49.674;10.716;2023-12-22T00:06:07;6.10;32.40
7902;DHT22;3996;49.674;10.716;2023-12-22T00:08:33;6.10;32.60
7902;DHT22;3996;49.674;10.716;2023-12-22T00:10:58;6.00;33.60
7902;DHT22;3996;49.674;10.716;2023-12-22T00:13:24;6.00;34.10
7902;DHT22;3996;49.674;10.716;2023-12-22T00:15:50;6.00;34.20
7902;DHT22;3996;49.674;10.716;2023-12-22T00:18:16;6.00;34.80
7902;DHT22;3996;49.674;10.716;2023-12-22T00:20:41;6.00;35.00
7902;DHT22;3996;49.674;10.716;2023-12-22T00:23:06;5.90;35.60
7902;DHT22;3996;49.674;10.716;2023-12-22T00:25:32;5.90;36.20
7902;DHT22;3996;49.674;10.716;2023-12-22T00:27:57;5.90;36.20
7902;DHT22;3996;49.674;10.716;2023-12-22T00:30:23;5.80;37.50
7902;DHT22;3996;49.674;10.716;2023-12-22T00:32:49;5.70;37.40
7902;DHT22;3996;49.674;10.716;2023-12-22T00:35:15;5.70;37.70
7902;DHT22;3996;49.674;10.716;2023-12-22T00:37:40;5.70;37.70
7902;DHT22;3996;49.674;10.716;2023-12-22T00:40:06;5.70;37.80
7902;DHT22;3996;49.674;10.716;2023-12-22T00:42:33;5.80;37.80
7902;DHT22;3996;49.674;10.716;2023-12-22T00:44:58;5.70;38.30
7902;DHT22;3996;49.674;10.716;2023-12-22T00:47:24;5.70;38.80
7902;DHT22;3996;49.674;10.716;2023-12-22T00:49:49;5.70;38.60
7902;DHT22;3996;49.674;10.716;2023-12-22T00:52:15;5.70;39.00
7902;DHT22;3996;49.674;10.716;2023-12-22T00:54:40;5.60;39.70
7902;DHT22;3996;49.674;10.716;2023-12-22T00:57:06;5.60;40.40
7902;DHT22;3996;49.674;10.716;2023-12-22T00:59:31;5.50;41.10
7902;DHT22;3996;49.674;10.716;2023-12-22T01:01:57;5.60;41.10
7902;DHT22;3996;49.674;10.716;2023-12-22T01:04:22;5.70;40.60
7902;DHT22;3996;49.674;10.716;2023-12-22T01:06:48;5.50;41.50
7902;DHT22;3996;49.674;10.716;2023-12-22T01:09:13;5.50;41.40
7902;DHT22;3996;49.674;10.716;2023-12-22T01:11:43;5.50;41.50
7902;DHT22;3996;49.674;10.716;2023-12-22T01:14:08;5.50;41.90
7902;DHT22;3996;49.674;10.716;2023-12-22T01:16:34;5.50;41.80
7902;DHT22;3996;49.674;10.716;2023-12-22T01:18:59;5.50;42.70
7902;DHT22;3996;49.674;10.716;2023-12-22T01:21:25;5.50;42.50
7902;DHT22;3996;49.674;10.716;2023-12-22T01:23:50;5.50;42.40
7902;DHT22;3996;49.674;10.716;2023-12-22T01:26:15;5.50;43.10
7902;DHT22;3996;49.674;10.716;2023-12-22T01:28:41;5.50;43.60
7902;DHT22;3996;49.674;10.716;2023-12-22T01:31:06;5.50;42.90
7902;DHT22;3996;49.674;10.716;2023-12-22T01:33:32;5.50;42.90
7902;DHT22;3996;49.674;10.716;2023-12-22T01:35:57;5.50;43.10
7902;DHT22;3996;49.674;10.716;2023-12-22T01:38:23;5.50;43.50
7902;DHT22;3996;49.674;10.716;2023-12-22T01:40:48;5.50;43.90
7902;DHT22;3996;49.674;10.716;2023-12-22T01:43:14;5.50;44.20
7902;DHT22;3996;49.674;10.716;2023-12-22T01:45:40;5.50;44.10
7902;DHT22;3996;49.674;10.716;2023-12-22T01:48:08;5.50;44.40
7902;DHT22;3996;49.674;10.716;2023-12-22T01:50:35;5.50;43.80
7902;DHT22;3996;49.674;10.716;2023-12-22T01:53:02;5.50;43.70
7902;DHT22;3996;49.674;10.716;2023-12-22T01:55:28;5.60;44.10
7902;DHT22;3996;49.674;10.716;2023-12-22T01:57:54;5.60;43.40
7902;DHT22;3996;49.674;10.716;2023-12-22T02:00:20;5.60;44.30
7902;DHT22;3996;49.674;10.716;2023-12-22T02:02:46;5.60;43.80
7902;DHT22;3996;49.674;10.716;2023-12-22T02:05:12;5.60;43.20
7902;DHT22;3996;49.674;10.716;2023-12-22T02:07:38;5.60;43.30
7902;DHT22;3996;49.674;10.716;2023-12-22T02:10:06;5.60;43.00
7902;DHT22;3996;49.674;10.716;2023-12-22T02:12:32;5.60;43.30
7902;DHT22;3996;49.674;10.716;2023-12-22T02:14:57;5.60;43.30
7902;DHT22;3996;49.674;10.716;2023-12-22T02:17:26;5.60;43.00
7902;DHT22;3996;49.674;10.716;2023-12-22T02:19:52;5.60;42.70
7902;DHT22;3996;49.674;10.716;2023-12-22T02:22:18;5.60;42.10
7902;DHT22;3996;49.674;10.716;2023-12-22T02:24:44;5.60;42.00
7902;DHT22;3996;49.674;10.716;2023-12-22T02:27:24;5.60;41.90
7902;DHT22;3996;49.674;10.716;2023-12-22T02:30:06;5.60;40.30
7902;DHT22;3996;49.674;10.716;2023-12-22T02:32:34;5.70;40.00
7902;DHT22;3996;49.674;10.716;2023-12-22T02:35:00;5.70;39.40
7902;DHT22;3996;49.674;10.716;2023-12-22T02:37:28;5.70;39.60
7902;DHT22;3996;49.674;10.716;2023-12-22T02:39:54;5.70;39.60
7902;DHT22;3996;49.674;10.716;2023-12-22T02:42:20;5.80;39.40
7902;DHT22;3996;49.674;10.716;2023-12-22T02:44:48;5.70;40.30
7902;DHT22;3996;49.674;10.716;2023-12-22T02:47:14;5.70;40.30
7902;DHT22;3996;49.674;10.716;2023-12-22T02:49:39;5.60;41.60
7902;DHT22;3996;49.674;10.716;2023-12-22T02:52:05;5.60;41.70
7902;DHT22;3996;49.674;10.716;2023-12-22T02:54:30;5.50;42.30
7902;DHT22;3996;49.674;10.716;2023-12-22T02:56:57;5.50;41.90
7902;DHT22;3996;49.674;10.716;2023-12-22T02:59:24;5.60;41.30
7902;DHT22;3996;49.674;10.716;2023-12-22T03:01:50;5.50;41.20
7902;DHT22;3996;49.674;10.716;2023-12-22T03:04:15;5.50;42.20
7902;DHT22;3996;49.674;10.716;2023-12-22T03:06:43;5.50;41.90
7902;DHT22;3996;49.674;10.716;2023-12-22T03:09:08;5.50;41.90
7902;DHT22;3996;49.674;10.716;2023-12-22T03:11:34;5.50;41.90
7902;DHT22;3996;49.674;10.716;2023-12-22T03:13:59;5.50;41.90
7902;DHT22;3996;49.674;10.716;2023-12-22T03:16:24;5.50;42.20
7902;DHT22;3996;49.674;10.716;2023-12-22T03:18:50;5.40;42.60
7902;DHT22;3996;49.674;10.716;2023-12-22T03:21:16;5.40;41.90
7902;DHT22;3996;49.674;10.716;2023-12-22T03:23:41;5.40;41.80
7902;DHT22;3996;49.674;10.716;2023-12-22T03:26:07;5.40;41.70
7902;DHT22;3996;49.674;10.716;2023-12-22T03:28:32;5.40;41.00
7902;DHT22;3996;49.674;10.716;2023-12-22T03:30:59;5.40;40.70
7902;DHT22;3996;49.674;10.716;2023-12-22T03:33:24;5.50;40.00
7902;DHT22;3996;49.674;10.716;2023-12-22T03:35:49;5.50;39.30
7902;DHT22;3996;49.674;10.716;2023-12-22T03:38:15;5.40;39.40
7902;DHT22;3996;49.674;10.716;2023-12-22T03:40:40;5.50;38.30
7902;DHT22;3996;49.674;10.716;2023-12-22T03:43:06;5.50;37.60
7902;DHT22;3996;49.674;10.716;2023-12-22T03:45:31;5.50;37.60
7902;DHT22;3996;49.674;10.716;2023-12-22T03:47:57;5.40;37.50
7902;DHT22;3996;49.674;10.716;2023-12-22T03:50:22;5.50;37.00
7902;DHT22;3996;49.674;10.716;2023-12-22T03:52:48;5.50;36.70
7902;DHT22;3996;49.674;10.716;2023-12-22T03:55:13;5.50;35.20
7902;DHT22;3996;49.674;10.716;2023-12-22T03:57:39;5.50;35.50
7902;DHT22;3996;49.674;10.716;2023-12-22T04:00:04;5.60;35.20
7902;DHT22;3996;49.674;10.716;2023-12-22T04:02:30;5.50;34.90
7902;DHT22;3996;49.674;10.716;2023-12-22T04:04:55;5.50;35.10
7902;DHT22;3996;49.674;10.716;2023-12-22T04:07:21;5.50;34.50
7902;DHT22;3996;49.674;10.716;2023-12-22T04:09:46;5.40;35.00
7902;DHT22;3996;49.674;10.716;2023-12-22T04:12:12;5.40;35.30
7902;DHT22;3996;49.674;10.716;2023-12-22T04:14:37;5.40;35.50
7902;DHT22;3996;49.674;10.716;2023-12-22T04:17:03;5.40;35.50
7902;DHT22;3996;49.674;10.716;2023-12-22T04:19:28;5.40;35.40
7902;DHT22;3996;49.674;10.716;2023-12-22T04:21:53;5.40;35.50
7902;DHT22;3996;49.674;10.716;2023-12-22T04:24:19;5.40;35.50
7902;DHT22;3996;49.674;10.716;2023-12-22T04:26:44;5.40;35.40
7902;DHT22;3996;49.674;10.716;2023-12-22T04:29:10;5.40;35.80
7902;DHT22;3996;49.674;10.716;2023-12-22T04:31:36;5.40;35.70
7902;DHT22;3996;49.674;10.716;2023-12-22T04:34:01;5.40;36.30
7902;DHT22;3996;49.674;10.716;2023-12-22T04:36:27;5.40;36.90
7902;DHT22;3996;49.674;10.716;2023-12-22T04:38:52;5.30;37.40
7902;DHT22;3996;49.674;10.716;2023-12-22T04:41:18;5.30;39.00
7902;DHT22;3996;49.674;10.716;2023-12-22T04:43:43;5.20;39.20
7902;DHT22;3996;49.674;10.716;2023-12-22T04:46:09;5.20;39.50
7902;DHT22;3996;49.674;10.716;2023-12-22T04:48:34;5.20;39.40
7902;DHT22;3996;49.674;10.716;2023-12-22T04:50:59;5.20;38.90
7902;DHT22;3996;49.674;10.716;2023-12-22T04:53:25;5.30;38.90
7902;DHT22;3996;49.674;10.716;2023-12-22T04:55:50;5.30;38.10
7902;DHT22;3996;49.674;10.716;2023-12-22T04:58:16;5.20;39.00
7902;DHT22;3996;49.674;10.716;2023-12-22T05:00:41;5.10;38.70
7902;DHT22;3996;49.674;10.716;2023-12-22T05:03:07;5.10;38.50
7902;DHT22;3996;49.674;10.716;2023-12-22T05:05:32;5.10;38.80
7902;DHT22;3996;49.674;10.716;2023-12-22T05:07:58;5.10;38.40
7902;DHT22;3996;49.674;10.716;2023-12-22T05:10:24;5.10;38.90
7902;DHT22;3996;49.674;10.716;2023-12-22T05:12:49;5.10;38.70
7902;DHT22;3996;49.674;10.716;2023-12-22T05:15:15;5.10;39.00
7902;DHT22;3996;49.674;10.716;2023-12-22T05:17:40;5.10;39.00
7902;DHT22;3996;49.674;10.716;2023-12-22T05:20:06;5.20;39.20
7902;DHT22;3996;49.674;10.716;2023-12-22T05:22:31;5.20;39.70
7902;DHT22;3996;49.674;10.716;2023-12-22T05:24:57;5.10;39.80
7902;DHT22;3996;49.674;10.716;2023-12-22T05:27:23;5.10;40.30
7902;DHT22;3996;49.674;10.716;2023-12-22T05:29:48;5.20;39.90
7902;DHT22;3996;49.674;10.716;2023-12-22T05:32:14;5.20;39.90
7902;DHT22;3996;49.674;10.716;2023-12-22T05:34:39;5.20;39.30
7902;DHT22;3996;49.674;10.716;2023-12-22T05:37:05;5.20;38.30
7902;DHT22;3996;49.674;10.716;2023-12-22T05:39:30;5.20;36.70
7902;DHT22;3996;49.674;10.716;2023-12-22T05:41:57;5.20;37.30
7902;DHT22;3996;49.674;10.716;2023-12-22T05:44:22;5.20;37.40
7902;DHT22;3996;49.674;10.716;2023-12-22T05:46:49;5.10;38.40
7902;DHT22;3996;49.674;10.716;2023-12-22T05:49:15;5.10;38.80
7902;DHT22;3996;49.674;10.716;2023-12-22T05:51:41;5.10;39.10
7902;DHT22;3996;49.674;10.716;2023-12-22T05:54:07;5.00;38.90
7902;DHT22;3996;49.674;10.716;2023-12-22T05:56:33;5.00;39.10
7902;DHT22;3996;49.674;10.716;2023-12-22T05:58:59;5.00;39.00
7902;DHT22;3996;49.674;10.716;2023-12-22T06:01:24;4.90;39.10
7902;DHT22;3996;49.674;10.716;2023-12-22T06:03:50;4.90;39.00
7902;DHT22;3996;49.674;10.716;2023-12-22T06:06:15;4.90;39.40
7902;DHT22;3996;49.674;10.716;2023-12-22T06:08:41;4.90;38.20
7902;DHT22;3996;49.674;10.716;2023-12-22T06:11:06;4.90;38.20
7902;DHT22;3996;49.674;10.716;2023-12-22T06:13:32;4.90;38.50
7902;DHT22;3996;49.674;10.716;2023-12-22T06:15:57;5.00;38.20
7902;DHT22;3996;49.674;10.716;2023-12-22T06:18:23;4.90;38.70
7902;DHT22;3996;49.674;10.716;2023-12-22T06:20:48;4.90;40.00
7902;DHT22;3996;49.674;10.716;2023-12-22T06:23:14;4.80;41.30
7902;DHT22;3996;49.674;10.716;2023-12-22T06:25:40;4.80;44.40
7902;DHT22;3996;49.674;10.716;2023-12-22T06:28:05;4.90;42.70
7902;DHT22;3996;49.674;10.716;2023-12-22T06:30:31;4.80;43.50
7902;DHT22;3996;49.674;10.716;2023-12-22T06:32:56;4.70;44.30
7902;DHT22;3996;49.674;10.716;2023-12-22T06:35:22;4.60;45.00
7902;DHT22;3996;49.674;10.716;2023-12-22T06:37:53;4.60;45.40
7902;DHT22;3996;49.674;10.716;2023-12-22T06:40:19;4.50;45.90
7902;DHT22;3996;49.674;10.716;2023-12-22T06:42:45;4.50;46.50
7902;DHT22;3996;49.674;10.716;2023-12-22T06:45:11;4.40;47.20
7902;DHT22;3996;49.674;10.716;2023-12-22T06:47:36;4.40;47.60
7902;DHT22;3996;49.674;10.716;2023-12-22T06:50:02;4.50;48.40
7902;DHT22;3996;49.674;10.716;2023-12-22T06:52:27;4.40;47.70
7902;DHT22;3996;49.674;10.716;2023-12-22T06:54:53;4.40;47.90
7902;DHT22;3996;49.674;10.716;2023-12-22T06:57:18;4.50;47.80
7902;DHT22;3996;49.674;10.716;2023-12-22T06:59:44;4.50;48.30
7902;DHT22;3996;49.674;10.716;2023-12-22T07:02:09;4.40;48.90
7902;DHT22;3996;49.674;10.716;2023-12-22T07:04:35;4.40;48.80
7902;DHT22;3996;49.674;10.716;2023-12-22T07:07:00;4.50;48.80
7902;DHT22;3996;49.674;10.716;2023-12-22T07:11:53;4.60;49.30
7902;DHT22;3996;49.674;10.716;2023-12-22T07:14:19;4.60;48.80
7902;DHT22;3996;49.674;10.716;2023-12-22T07:16:45;4.50;49.50
7902;DHT22;3996;49.674;10.716;2023-12-22T07:19:10;4.50;50.40
7902;DHT22;3996;49.674;10.716;2023-12-22T07:21:38;4.60;50.60
7902;DHT22;3996;49.674;10.716;2023-12-22T07:24:04;4.70;50.60
7902;DHT22;3996;49.674;10.716;2023-12-22T07:26:30;4.70;51.20
7902;DHT22;3996;49.674;10.716;2023-12-22T07:28:55;4.70;51.80
7902;DHT22;3996;49.674;10.716;2023-12-22T07:31:21;4.80;52.30
7902;DHT22;3996;49.674;10.716;2023-12-22T07:33:46;4.90;56.20
7902;DHT22;3996;49.674;10.716;2023-12-22T07:36:12;4.90;54.20
7902;DHT22;3996;49.674;10.716;2023-12-22T07:38:37;4.90;55.00
7902;DHT22;3996;49.674;10.716;2023-12-22T07:41:04;4.90;55.30
7902;DHT22;3996;49.674;10.716;2023-12-22T07:43:30;5.00;54.90
7902;DHT22;3996;49.674;10.716;2023-12-22T07:45:55;5.00;55.20
7902;DHT22;3996;49.674;10.716;2023-12-22T07:48:21;5.10;54.90
7902;DHT22;3996;49.674;10.716;2023-12-22T07:50:46;5.10;54.40
7902;DHT22;3996;49.674;10.716;2023-12-22T07:53:12;5.10;54.40
7902;DHT22;3996;49.674;10.716;2023-12-22T07:55:37;5.20;54.50
7902;DHT22;3996;49.674;10.716;2023-12-22T07:58:04;5.20;53.70
7902;DHT22;3996;49.674;10.716;2023-12-22T08:00:29;5.20;53.80
7902;DHT22;3996;49.674;10.716;2023-12-22T08:02:55;5.30;53.00
7902;DHT22;3996;49.674;10.716;2023-12-22T08:05:20;5.40;53.00
7902;DHT22;3996;49.674;10.716;2023-12-22T08:07:46;5.40;52.70
7902;DHT22;3996;49.674;10.716;2023-12-22T08:10:12;5.50;52.30
7902;DHT22;3996;49.674;10.716;2023-12-22T08:12:37;5.40;52.30
7902;DHT22;3996;49.674;10.716;2023-12-22T08:15:03;5.40;52.90
7902;DHT22;3996;49.674;10.716;2023-12-22T08:17:28;5.50;52.70
7902;DHT22;3996;49.674;10.716;2023-12-22T08:19:54;5.50;52.20
7902;DHT22;3996;49.674;10.716;2023-12-22T08:22:19;5.60;52.30
7902;DHT22;3996;49.674;10.716;2023-12-22T08:24:45;5.60;52.40
7902;DHT22;3996;49.674;10.716;2023-12-22T08:27:10;5.60;52.30
7902;DHT22;3996;49.674;10.716;2023-12-22T08:29:36;5.60;53.10
7902;DHT22;3996;49.674;10.716;2023-12-22T08:32:02;5.60;54.00
7902;DHT22;3996;49.674;10.716;2023-12-22T08:34:27;5.60;54.90
7902;DHT22;3996;49.674;10.716;2023-12-22T08:36:53;5.60;54.80
7902;DHT22;3996;49.674;10.716;2023-12-22T08:39:18;5.60;55.50
7902;DHT22;3996;49.674;10.716;2023-12-22T08:41:44;5.60;55.30
7902;DHT22;3996;49.674;10.716;2023-12-22T08:44:10;5.60;54.80
7902;DHT22;3996;49.674;10.716;2023-12-22T08:46:35;5.60;55.40
7902;DHT22;3996;49.674;10.716;2023-12-22T08:49:01;5.70;55.70
7902;DHT22;3996;49.674;10.716;2023-12-22T08:51:27;5.70;56.60
7902;DHT22;3996;49.674;10.716;2023-12-22T08:53:53;5.70;56.20
7902;DHT22;3996;49.674;10.716;2023-12-22T08:56:20;5.70;55.00
7902;DHT22;3996;49.674;10.716;2023-12-22T08:58:46;5.80;55.00
7902;DHT22;3996;49.674;10.716;2023-12-22T09:01:15;5.80;54.60
7902;DHT22;3996;49.674;10.716;2023-12-22T09:03:41;5.80;54.90
7902;DHT22;3996;49.674;10.716;2023-12-22T09:06:17;5.90;54.50
7902;DHT22;3996;49.674;10.716;2023-12-22T09:08:43;5.90;55.10
7902;DHT22;3996;49.674;10.716;2023-12-22T09:11:10;5.80;56.90
7902;DHT22;3996;49.674;10.716;2023-12-22T09:13:36;5.80;58.10
7902;DHT22;3996;49.674;10.716;2023-12-22T09:16:01;5.80;58.90
7902;DHT22;3996;49.674;10.716;2023-12-22T09:18:27;5.80;60.10
7902;DHT22;3996;49.674;10.716;2023-12-22T09:20:53;5.80;59.80
7902;DHT22;3996;49.674;10.716;2023-12-22T09:23:19;5.80;60.10
7902;DHT22;3996;49.674;10.716;2023-12-22T09:25:45;5.80;61.10
7902;DHT22;3996;49.674;10.716;2023-12-22T09:28:10;5.80;61.20
7902;DHT22;3996;49.674;10.716;2023-12-22T09:30:36;5.80;60.20
7902;DHT22;3996;49.674;10.716;2023-12-22T09:33:01;5.80;59.50
7902;DHT22;3996;49.674;10.716;2023-12-22T09:35:27;5.90;58.50
7902;DHT22;3996;49.674;10.716;2023-12-22T09:37:53;5.90;57.40
7902;DHT22;3996;49.674;10.716;2023-12-22T09:40:18;5.80;55.80
7902;DHT22;3996;49.674;10.716;2023-12-22T09:42:44;5.80;55.90
7902;DHT22;3996;49.674;10.716;2023-12-22T09:45:11;5.80;55.10
7902;DHT22;3996;49.674;10.716;2023-12-22T09:47:39;5.70;57.50
7902;DHT22;3996;49.674;10.716;2023-12-22T09:50:06;5.70;56.20
7902;DHT22;3996;49.674;10.716;2023-12-22T09:52:32;5.60;58.70
7902;DHT22;3996;49.674;10.716;2023-12-22T09:54:59;5.40;60.20
7902;DHT22;3996;49.674;10.716;2023-12-22T09:57:25;5.40;59.60
7902;DHT22;3996;49.674;10.716;2023-12-22T09:59:51;5.40;58.60
7902;DHT22;3996;49.674;10.716;2023-12-22T10:02:20;5.30;60.00
7902;DHT22;3996;49.674;10.716;2023-12-22T10:04:45;5.40;60.60
7902;DHT22;3996;49.674;10.716;2023-12-22T10:07:11;5.30;60.30
7902;DHT22;3996;49.674;10.716;2023-12-22T10:09:39;5.30;61.20
7902;DHT22;3996;49.674;10.716;2023-12-22T10:12:04;5.40;60.80
7902;DHT22;3996;49.674;10.716;2023-12-22T10:14:30;5.40;61.10
7902;DHT22;3996;49.674;10.716;2023-12-22T10:16:57;5.50;60.40
7902;DHT22;3996;49.674;10.716;2023-12-22T10:19:22;5.50;62.20
7902;DHT22;3996;49.674;10.716;2023-12-22T10:21:48;5.60;62.20
7902;DHT22;3996;49.674;10.716;2023-12-22T10:24:36;5.60;62.70
7902;DHT22;3996;49.674;10.716;2023-12-22T10:26:59;5.70;61.90
7902;DHT22;3996;49.674;10.716;2023-12-22T10:29:25;5.70;61.10
7902;DHT22;3996;49.674;10.716;2023-12-22T10:31:51;5.80;61.20
7902;DHT22;3996;49.674;10.716;2023-12-22T10:34:16;5.80;61.50
7902;DHT22;3996;49.674;10.716;2023-12-22T10:36:43;6.00;61.20
7902;DHT22;3996;49.674;10.716;2023-12-22T10:39:08;6.00;62.10
7902;DHT22;3996;49.674;10.716;2023-12-22T10:41:34;6.00;61.60
7902;DHT22;3996;49.674;10.716;2023-12-22T10:44:00;6.00;61.90
7902;DHT22;3996;49.674;10.716;2023-12-22T10:46:25;6.00;62.60
7902;DHT22;3996;49.674;10.716;2023-12-22T10:48:54;6.10;64.50
7902;DHT22;3996;49.674;10.716;2023-12-22T10:51:19;6.20;66.70
7902;DHT22;3996;49.674;10.716;2023-12-22T10:53:46;6.30;65.70
7902;DHT22;3996;49.674;10.716;2023-12-22T10:56:11;6.30;63.50
7902;DHT22;3996;49.674;10.716;2023-12-22T10:58:37;6.30;63.50
7902;DHT22;3996;49.674;10.716;2023-12-22T11:01:05;6.40;63.40
7902;DHT22;3996;49.674;10.716;2023-12-22T11:03:31;6.40;63.50
7902;DHT22;3996;49.674;10.716;2023-12-22T11:05:59;6.40;63.10
7902;DHT22;3996;49.674;10.716;2023-12-22T11:08:26;6.40;63.60
7902;DHT22;3996;49.674;10.716;2023-12-22T11:10:54;6.40;62.40
7902;DHT22;3996;49.674;10.716;2023-12-22T11:13:22;6.50;62.70
7902;DHT22;3996;49.674;10.716;2023-12-22T11:15:49;6.60;65.50
7902;DHT22;3996;49.674;10.716;2023-12-22T11:18:15;6.70;64.90
7902;DHT22;3996;49.674;10.716;2023-12-22T11:20:40;6.80;65.10
7902;DHT22;3996;49.674;10.716;2023-12-22T11:23:06;7.00;68.10
7902;DHT22;3996;49.674;10.716;2023-12-22T11:25:33;7.10;64.80
7902;DHT22;3996;49.674;10.716;2023-12-22T11:28:00;7.10;61.10
7902;DHT22;3996;49.674;10.716;2023-12-22T11:30:26;7.00;60.70
7902;DHT22;3996;49.674;10.716;2023-12-22T11:32:53;6.90;61.70
7902;DHT22;3996;49.674;10.716;2023-12-22T11:35:18;6.90;63.20
7902;DHT22;3996;49.674;10.716;2023-12-22T11:37:44;6.90;62.90
7902;DHT22;3996;49.674;10.716;2023-12-22T11:40:10;7.00;62.50
7902;DHT22;3996;49.674;10.716;2023-12-22T11:42:37;7.00;61.90
7902;DHT22;3996;49.674;10.716;2023-12-22T11:45:09;6.90;62.40
7902;DHT22;3996;49.674;10.716;2023-12-22T11:47:34;6.90;62.30
7902;DHT22;3996;49.674;10.716;2023-12-22T11:50:00;6.90;62.20
7902;DHT22;3996;49.674;10.716;2023-12-22T11:52:26;6.80;62.30
7902;DHT22;3996;49.674;10.716;2023-12-22T11:54:55;6.80;63.40
7902;DHT22;3996;49.674;10.716;2023-12-22T11:59:52;6.80;63.60
7902;DHT22;3996;49.674;10.716;2023-12-22T12:02:18;6.80;63.80
7902;DHT22;3996;49.674;10.716;2023-12-22T12:04:45;6.70;63.90
7902;DHT22;3996;49.674;10.716;2023-12-22T12:08:02;6.80;64.00
7902;DHT22;3996;49.674;10.716;2023-12-22T12:09:58;6.80;64.00
7902;DHT22;3996;49.674;10.716;2023-12-22T12:12:24;6.90;64.60
7902;DHT22;3996;49.674;10.716;2023-12-22T12:14:49;6.90;64.00
7902;DHT22;3996;49.674;10.716;2023-12-22T12:17:16;6.90;63.20
7902;DHT22;3996;49.674;10.716;2023-12-22T12:19:44;6.90;64.70
7902;DHT22;3996;49.674;10.716;2023-12-22T12:22:11;6.90;65.70
7902;DHT22;3996;49.674;10.716;2023-12-22T12:24:38;6.90;65.60
7902;DHT22;3996;49.674;10.716;2023-12-22T12:27:04;6.90;65.00
7902;DHT22;3996;49.674;10.716;2023-12-22T12:29:30;7.00;65.70
7902;DHT22;3996;49.674;10.716;2023-12-22T12:32:02;7.00;66.50
7902;DHT22;3996;49.674;10.716;2023-12-22T12:34:27;7.00;66.70
7902;DHT22;3996;49.674;10.716;2023-12-22T12:36:53;7.00;67.60
7902;DHT22;3996;49.674;10.716;2023-12-22T12:39:19;7.10;67.80
7902;DHT22;3996;49.674;10.716;2023-12-22T12:41:50;7.10;67.70
7902;DHT22;3996;49.674;10.716;2023-12-22T12:44:18;7.10;66.60
7902;DHT22;3996;49.674;10.716;2023-12-22T12:46:43;7.10;66.70
7902;DHT22;3996;49.674;10.716;2023-12-22T12:49:09;7.20;67.00
7902;DHT22;3996;49.674;10.716;2023-12-22T12:51:41;7.20;66.80
7902;DHT22;3996;49.674;10.716;2023-12-22T12:54:07;7.20;66.40
7902;DHT22;3996;49.674;10.716;2023-12-22T12:56:45;7.30;66.90
7902;DHT22;3996;49.674;10.716;2023-12-22T12:59:12;7.20;67.00
7902;DHT22;3996;49.674;10.716;2023-12-22T13:01:41;7.30;66.20
7902;DHT22;3996;49.674;10.716;2023-12-22T13:04:07;7.30;66.20
7902;DHT22;3996;49.674;10.716;2023-12-22T13:06:33;7.30;65.50
7902;DHT22;3996;49.674;10.716;2023-12-22T13:08:59;7.30;65.80
7902;DHT22;3996;49.674;10.716;2023-12-22T13:11:25;7.30;66.60
7902;DHT22;3996;49.674;10.716;2023-12-22T13:13:51;7.30;66.70
7902;DHT22;3996;49.674;10.716;2023-12-22T13:16:20;7.30;67.00
7902;DHT22;3996;49.674;10.716;2023-12-22T13:18:46;7.40;67.20
7902;DHT22;3996;49.674;10.716;2023-12-22T13:21:12;7.30;67.60
7902;DHT22;3996;49.674;10.716;2023-12-22T13:23:37;7.30;67.00
7902;DHT22;3996;49.674;10.716;2023-12-22T13:26:03;7.30;66.70
7902;DHT22;3996;49.674;10.716;2023-12-22T13:28:28;7.40;67.40
7902;DHT22;3996;49.674;10.716;2023-12-22T13:30:54;7.30;68.00
7902;DHT22;3996;49.674;10.716;2023-12-22T13:33:20;7.40;67.20
7902;DHT22;3996;49.674;10.716;2023-12-22T13:35:45;7.40;67.00
7902;DHT22;3996;49.674;10.716;2023-12-22T13:38:12;7.40;66.60
7902;DHT22;3996;49.674;10.716;2023-12-22T13:40:37;7.40;67.10
7902;DHT22;3996;49.674;10.716;2023-12-22T13:43:03;7.40;67.30
7902;DHT22;3996;49.674;10.716;2023-12-22T13:45:30;7.40;67.20
7902;DHT22;3996;49.674;10.716;2023-12-22T13:47:56;7.40;66.80
7902;DHT22;3996;49.674;10.716;2023-12-22T13:50:22;7.50;66.40
7902;DHT22;3996;49.674;10.716;2023-12-22T13:52:50;7.50;67.30
7902;DHT22;3996;49.674;10.716;2023-12-22T13:55:17;7.50;67.50
7902;DHT22;3996;49.674;10.716;2023-12-22T13:57:43;7.50;68.10
7902;DHT22;3996;49.674;10.716;2023-12-22T14:02:43;7.50;67.50
7902;DHT22;3996;49.674;10.716;2023-12-22T14:05:09;7.50;67.80
7902;DHT22;3996;49.674;10.716;2023-12-22T14:07:34;7.50;67.70
7902;DHT22;3996;49.674;10.716;2023-12-22T14:10:06;7.60;67.90
7902;DHT22;3996;49.674;10.716;2023-12-22T14:12:32;7.50;69.50
7902;DHT22;3996;49.674;10.716;2023-12-22T14:14:58;7.50;68.90
7902;DHT22;3996;49.674;10.716;2023-12-22T14:17:24;7.60;69.40
7902;DHT22;3996;49.674;10.716;2023-12-22T14:19:49;7.60;69.60
7902;DHT22;3996;49.674;10.716;2023-12-22T14:22:15;7.60;70.20
7902;DHT22;3996;49.674;10.716;2023-12-22T14:24:40;7.60;69.60
7902;DHT22;3996;49.674;10.716;2023-12-22T14:27:06;7.50;69.00
7902;DHT22;3996;49.674;10.716;2023-12-22T14:29:31;7.60;69.60
7902;DHT22;3996;49.674;10.716;2023-12-22T14:31:58;7.60;70.30
7902;DHT22;3996;49.674;10.716;2023-12-22T14:34:24;7.60;69.50
7902;DHT22;3996;49.674;10.716;2023-12-22T14:36:49;7.60;68.50
7902;DHT22;3996;49.674;10.716;2023-12-22T14:39:15;7.70;68.00
7902;DHT22;3996;49.674;10.716;2023-12-22T14:41:40;7.70;68.40
7902;DHT22;3996;49.674;10.716;2023-12-22T14:44:09;7.70;67.30
7902;DHT22;3996;49.674;10.716;2023-12-22T14:46:38;7.80;66.10
7902;DHT22;3996;49.674;10.716;2023-12-22T14:49:04;7.80;65.40
7902;DHT22;3996;49.674;10.716;2023-12-22T14:51:29;7.80;64.80
7902;DHT22;3996;49.674;10.716;2023-12-22T14:53:59;7.80;63.50
7902;DHT22;3996;49.674;10.716;2023-12-22T14:56:24;7.90;62.70
7902;DHT22;3996;49.674;10.716;2023-12-22T14:58:50;7.90;61.50
7902;DHT22;3996;49.674;10.716;2023-12-22T15:01:15;7.90;61.70
7902;DHT22;3996;49.674;10.716;2023-12-22T15:03:41;7.90;62.10
7902;DHT22;3996;49.674;10.716;2023-12-22T15:06:06;7.90;60.90
7902;DHT22;3996;49.674;10.716;2023-12-22T15:08:32;7.90;60.80
7902;DHT22;3996;49.674;10.716;2023-12-22T15:10:57;8.10;65.80
7902;DHT22;3996;49.674;10.716;2023-12-22T15:13:23;8.10;60.00
7902;DHT22;3996;49.674;10.716;2023-12-22T15:15:48;8.00;60.40
7902;DHT22;3996;49.674;10.716;2023-12-22T15:18:14;8.00;60.70
7902;DHT22;3996;49.674;10.716;2023-12-22T15:20:39;8.00;61.00
7902;DHT22;3996;49.674;10.716;2023-12-22T15:23:05;8.00;61.30
7902;DHT22;3996;49.674;10.716;2023-12-22T15:25:31;8.00;61.00
7902;DHT22;3996;49.674;10.716;2023-12-22T15:27:56;8.00;61.50
7902;DHT22;3996;49.674;10.716;2023-12-22T15:30:21;8.10;64.80
7902;DHT22;3996;49.674;10.716;2023-12-22T15:32:47;8.10;64.10
7902;DHT22;3996;49.674;10.716;2023-12-22T15:35:12;8.10;61.10
7902;DHT22;3996;49.674;10.716;2023-12-22T15:37:38;8.10;61.10
7902;DHT22;3996;49.674;10.716;2023-12-22T15:40:04;8.10;62.20
7902;DHT22;3996;49.674;10.716;2023-12-22T15:42:29;8.10;62.00
7902;DHT22;3996;49.674;10.716;2023-12-22T15:44:55;8.10;60.20
7902;DHT22;3996;49.674;10.716;2023-12-22T15:47:20;8.10;60.10
7902;DHT22;3996;49.674;10.716;2023-12-22T15:49:46;8.10;58.90
7902;DHT22;3996;49.674;10.716;2023-12-22T15:52:12;8.10;57.90
7902;DHT22;3996;49.674;10.716;2023-12-22T15:54:40;8.10;58.70
7902;DHT22;3996;49.674;10.716;2023-12-22T15:57:05;8.10;58.00
7902;DHT22;3996;49.674;10.716;2023-12-22T15:59:31;8.10;59.40
7902;DHT22;3996;49.674;10.716;2023-12-22T16:01:56;8.10;59.00